Pollock Pines, California
Current Conditions -  °F | °C
As of 3:55 AM on Wednesday 28 Jan 2015 (Local Time) from KPVF Reporting Station
Clear Clear  
Wind Chill: 44°   Ceiling: Unl
Heat Index: 48°   Visibility: 10mi
Dew Point: 28°   Wind: 10mph
Humidity: 46%   Direction: 60°ENE
Pressure: 30.25"   Gusts: NA
Location:  38.76°N, 120.59°W
Report Text: KPVF 281155Z AUTO 06009KT 10SM CLR 09/M02 A3025 RMK AO1
Loading
Personal Weather Stations






























Interactive Weather Map New forecast layout! Learn more

10-Day Weather Forecast

Advertisements
Track Severe Weather on mobile